sensor_id;sensor_type;location;lat;lon;timestamp;P1;durP1;ratioP1;P2;durP2;ratioP2
11313;SDS011;5712;48.858;9.206;2022-08-03T00:00:58;3.83;;;3.40;;
11313;SDS011;5712;48.858;9.206;2022-08-03T00:03:24;3.80;;;3.50;;
11313;SDS011;5712;48.858;9.206;2022-08-03T00:05:51;3.93;;;3.53;;
11313;SDS011;5712;48.858;9.206;2022-08-03T00:08:18;4.10;;;3.70;;
11313;SDS011;5712;48.858;9.206;2022-08-03T00:10:44;3.87;;;3.57;;
11313;SDS011;5712;48.858;9.206;2022-08-03T00:13:11;3.90;;;3.40;;
11313;SDS011;5712;48.858;9.206;2022-08-03T00:15:39;3.80;;;3.50;;
11313;SDS011;5712;48.858;9.206;2022-08-03T00:18:06;3.80;;;3.50;;
11313;SDS011;5712;48.858;9.206;2022-08-03T00:20:33;3.97;;;3.53;;
11313;SDS011;5712;48.858;9.206;2022-08-03T00:23:00;3.87;;;3.47;;
11313;SDS011;5712;48.858;9.206;2022-08-03T00:25:26;4.10;;;3.80;;
11313;SDS011;5712;48.858;9.206;2022-08-03T00:27:53;4.00;;;3.60;;
11313;SDS011;5712;48.858;9.206;2022-08-03T00:30:20;4.50;;;3.93;;
11313;SDS011;5712;48.858;9.206;2022-08-03T00:32:48;3.90;;;3.60;;
11313;SDS011;5712;48.858;9.206;2022-08-03T00:35:14;4.30;;;3.90;;
11313;SDS011;5712;48.858;9.206;2022-08-03T00:37:41;4.43;;;4.03;;
11313;SDS011;5712;48.858;9.206;2022-08-03T00:40:08;3.80;;;3.50;;
11313;SDS011;5712;48.858;9.206;2022-08-03T00:42:44;4.50;;;4.10;;
11313;SDS011;5712;48.858;9.206;2022-08-03T00:45:12;4.63;;;4.07;;
11313;SDS011;5712;48.858;9.206;2022-08-03T00:47:38;4.43;;;4.03;;
11313;SDS011;5712;48.858;9.206;2022-08-03T00:50:06;4.47;;;4.07;;
11313;SDS011;5712;48.858;9.206;2022-08-03T00:52:33;4.13;;;3.73;;
11313;SDS011;5712;48.858;9.206;2022-08-03T00:55:00;3.83;;;3.53;;
11313;SDS011;5712;48.858;9.206;2022-08-03T00:57:27;4.17;;;3.77;;
11313;SDS011;5712;48.858;9.206;2022-08-03T00:59:55;4.50;;;3.97;;
11313;SDS011;5712;48.858;9.206;2022-08-03T01:02:24;4.10;;;3.70;;
11313;SDS011;5712;48.858;9.206;2022-08-03T01:04:50;4.60;;;4.10;;
11313;SDS011;5712;48.858;9.206;2022-08-03T01:07:20;4.17;;;3.77;;
11313;SDS011;5712;48.858;9.206;2022-08-03T01:09:57;4.10;;;3.80;;
11313;SDS011;5712;48.858;9.206;2022-08-03T01:12:28;4.33;;;3.97;;
11313;SDS011;5712;48.858;9.206;2022-08-03T01:15:02;3.87;;;3.57;;
11313;SDS011;5712;48.858;9.206;2022-08-03T01:17:39;3.97;;;3.67;;
11313;SDS011;5712;48.858;9.206;2022-08-03T01:20:13;4.00;;;3.60;;
11313;SDS011;5712;48.858;9.206;2022-08-03T01:25:39;3.73;;;3.43;;
11313;SDS011;5712;48.858;9.206;2022-08-03T01:28:21;3.90;;;3.50;;
11313;SDS011;5712;48.858;9.206;2022-08-03T01:31:00;4.40;;;3.70;;
11313;SDS011;5712;48.858;9.206;2022-08-03T01:33:31;4.10;;;3.30;;
11313;SDS011;5712;48.858;9.206;2022-08-03T01:36:02;4.13;;;3.73;;
11313;SDS011;5712;48.858;9.206;2022-08-03T01:38:31;3.97;;;3.57;;
11313;SDS011;5712;48.858;9.206;2022-08-03T01:41:00;4.23;;;3.87;;
11313;SDS011;5712;48.858;9.206;2022-08-03T01:43:32;4.50;;;4.10;;
11313;SDS011;5712;48.858;9.206;2022-08-03T01:46:01;3.70;;;3.40;;
11313;SDS011;5712;48.858;9.206;2022-08-03T01:48:29;3.47;;;3.17;;
11313;SDS011;5712;48.858;9.206;2022-08-03T01:50:56;5.00;;;3.90;;
11313;SDS011;5712;48.858;9.206;2022-08-03T01:53:25;4.40;;;4.00;;
11313;SDS011;5712;48.858;9.206;2022-08-03T01:55:53;3.73;;;3.43;;
11313;SDS011;5712;48.858;9.206;2022-08-03T01:58:20;4.13;;;3.83;;
11313;SDS011;5712;48.858;9.206;2022-08-03T02:00:49;3.90;;;3.50;;
11313;SDS011;5712;48.858;9.206;2022-08-03T02:03:19;3.97;;;3.67;;
11313;SDS011;5712;48.858;9.206;2022-08-03T02:05:48;4.00;;;3.60;;
11313;SDS011;5712;48.858;9.206;2022-08-03T02:08:16;4.20;;;3.80;;
11313;SDS011;5712;48.858;9.206;2022-08-03T02:10:43;4.10;;;3.70;;
11313;SDS011;5712;48.858;9.206;2022-08-03T02:13:11;4.30;;;3.67;;
11313;SDS011;5712;48.858;9.206;2022-08-03T02:15:40;4.07;;;3.67;;
11313;SDS011;5712;48.858;9.206;2022-08-03T02:18:08;5.23;;;4.13;;
11313;SDS011;5712;48.858;9.206;2022-08-03T02:20:36;4.20;;;3.87;;
11313;SDS011;5712;48.858;9.206;2022-08-03T02:23:04;3.97;;;3.67;;
11313;SDS011;5712;48.858;9.206;2022-08-03T02:25:31;4.43;;;4.03;;
11313;SDS011;5712;48.858;9.206;2022-08-03T02:28:01;4.30;;;3.50;;
11313;SDS011;5712;48.858;9.206;2022-08-03T02:30:33;5.03;;;3.70;;
11313;SDS011;5712;48.858;9.206;2022-08-03T02:33:02;4.13;;;3.80;;
11313;SDS011;5712;48.858;9.206;2022-08-03T02:35:30;4.03;;;3.67;;
11313;SDS011;5712;48.858;9.206;2022-08-03T02:38:01;3.80;;;3.50;;
11313;SDS011;5712;48.858;9.206;2022-08-03T02:40:30;6.43;;;4.00;;
11313;SDS011;5712;48.858;9.206;2022-08-03T02:42:58;5.40;;;4.27;;
11313;SDS011;5712;48.858;9.206;2022-08-03T02:45:27;4.03;;;3.73;;
11313;SDS011;5712;48.858;9.206;2022-08-03T02:47:56;5.10;;;4.60;;
11313;SDS011;5712;48.858;9.206;2022-08-03T02:50:25;4.90;;;4.50;;
11313;SDS011;5712;48.858;9.206;2022-08-03T02:52:54;4.40;;;4.00;;
11313;SDS011;5712;48.858;9.206;2022-08-03T02:55:25;5.10;;;4.60;;
11313;SDS011;5712;48.858;9.206;2022-08-03T02:57:53;4.50;;;4.10;;
11313;SDS011;5712;48.858;9.206;2022-08-03T03:00:21;4.63;;;4.23;;
11313;SDS011;5712;48.858;9.206;2022-08-03T03:02:49;4.50;;;4.10;;
11313;SDS011;5712;48.858;9.206;2022-08-03T03:05:17;5.13;;;4.70;;
11313;SDS011;5712;48.858;9.206;2022-08-03T03:07:45;5.10;;;4.57;;
11313;SDS011;5712;48.858;9.206;2022-08-03T03:10:12;4.70;;;4.30;;
11313;SDS011;5712;48.858;9.206;2022-08-03T03:12:40;5.27;;;4.77;;
11313;SDS011;5712;48.858;9.206;2022-08-03T03:15:08;4.63;;;4.20;;
11313;SDS011;5712;48.858;9.206;2022-08-03T03:17:36;5.20;;;4.47;;
11313;SDS011;5712;48.858;9.206;2022-08-03T03:20:04;5.03;;;4.57;;
11313;SDS011;5712;48.858;9.206;2022-08-03T03:22:32;5.37;;;4.90;;
11313;SDS011;5712;48.858;9.206;2022-08-03T03:25:00;4.90;;;4.50;;
11313;SDS011;5712;48.858;9.206;2022-08-03T03:27:27;5.03;;;4.30;;
11313;SDS011;5712;48.858;9.206;2022-08-03T03:29:56;5.43;;;4.60;;
11313;SDS011;5712;48.858;9.206;2022-08-03T03:32:22;5.20;;;4.70;;
11313;SDS011;5712;48.858;9.206;2022-08-03T03:34:49;5.13;;;4.63;;
11313;SDS011;5712;48.858;9.206;2022-08-03T03:37:16;5.23;;;4.50;;
11313;SDS011;5712;48.858;9.206;2022-08-03T03:39:42;5.50;;;4.97;;
11313;SDS011;5712;48.858;9.206;2022-08-03T03:42:09;5.27;;;4.77;;
11313;SDS011;5712;48.858;9.206;2022-08-03T03:44:36;5.63;;;4.93;;
11313;SDS011;5712;48.858;9.206;2022-08-03T03:47:04;6.10;;;5.50;;
11313;SDS011;5712;48.858;9.206;2022-08-03T03:49:31;5.93;;;5.30;;
11313;SDS011;5712;48.858;9.206;2022-08-03T03:51:57;8.53;;;6.07;;
11313;SDS011;5712;48.858;9.206;2022-08-03T03:54:24;6.50;;;5.53;;
11313;SDS011;5712;48.858;9.206;2022-08-03T03:56:50;6.03;;;5.37;;
11313;SDS011;5712;48.858;9.206;2022-08-03T03:59:17;6.23;;;5.63;;
11313;SDS011;5712;48.858;9.206;2022-08-03T04:01:44;6.57;;;5.43;;
11313;SDS011;5712;48.858;9.206;2022-08-03T04:04:12;5.97;;;5.40;;
11313;SDS011;5712;48.858;9.206;2022-08-03T04:06:56;6.10;;;5.43;;
11313;SDS011;5712;48.858;9.206;2022-08-03T04:09:40;5.63;;;5.13;;
11313;SDS011;5712;48.858;9.206;2022-08-03T04:12:26;6.00;;;5.47;;
11313;SDS011;5712;48.858;9.206;2022-08-03T04:14:55;5.97;;;4.80;;
11313;SDS011;5712;48.858;9.206;2022-08-03T04:17:23;6.60;;;5.23;;
11313;SDS011;5712;48.858;9.206;2022-08-03T04:19:54;5.87;;;5.27;;
11313;SDS011;5712;48.858;9.206;2022-08-03T04:22:24;5.30;;;4.80;;
11313;SDS011;5712;48.858;9.206;2022-08-03T04:24:56;6.00;;;4.93;;
11313;SDS011;5712;48.858;9.206;2022-08-03T04:27:27;5.67;;;5.07;;
11313;SDS011;5712;48.858;9.206;2022-08-03T04:29:58;5.30;;;4.80;;
11313;SDS011;5712;48.858;9.206;2022-08-03T04:32:27;4.73;;;4.33;;
11313;SDS011;5712;48.858;9.206;2022-08-03T04:34:56;5.63;;;4.90;;
11313;SDS011;5712;48.858;9.206;2022-08-03T04:37:25;5.20;;;4.70;;
11313;SDS011;5712;48.858;9.206;2022-08-03T04:39:59;5.07;;;4.67;;
11313;SDS011;5712;48.858;9.206;2022-08-03T04:42:28;5.07;;;4.57;;
11313;SDS011;5712;48.858;9.206;2022-08-03T04:44:58;6.27;;;5.47;;
11313;SDS011;5712;48.858;9.206;2022-08-03T04:47:25;5.53;;;5.03;;
11313;SDS011;5712;48.858;9.206;2022-08-03T04:49:52;5.43;;;4.90;;
11313;SDS011;5712;48.858;9.206;2022-08-03T04:52:20;5.40;;;4.90;;
11313;SDS011;5712;48.858;9.206;2022-08-03T04:54:47;6.33;;;4.83;;
11313;SDS011;5712;48.858;9.206;2022-08-03T04:57:13;6.00;;;5.40;;
11313;SDS011;5712;48.858;9.206;2022-08-03T04:59:40;5.80;;;5.20;;
11313;SDS011;5712;48.858;9.206;2022-08-03T05:02:06;6.10;;;5.50;;
11313;SDS011;5712;48.858;9.206;2022-08-03T05:04:33;6.00;;;5.40;;
11313;SDS011;5712;48.858;9.206;2022-08-03T05:07:00;6.57;;;5.80;;
11313;SDS011;5712;48.858;9.206;2022-08-03T05:09:28;5.97;;;5.37;;
11313;SDS011;5712;48.858;9.206;2022-08-03T05:11:54;5.60;;;5.10;;
11313;SDS011;5712;48.858;9.206;2022-08-03T05:14:21;5.30;;;4.80;;
11313;SDS011;5712;48.858;9.206;2022-08-03T05:16:47;6.50;;;5.33;;
11313;SDS011;5712;48.858;9.206;2022-08-03T05:19:14;5.80;;;5.20;;
11313;SDS011;5712;48.858;9.206;2022-08-03T05:21:40;8.07;;;4.70;;
11313;SDS011;5712;48.858;9.206;2022-08-03T05:24:07;6.63;;;5.23;;
11313;SDS011;5712;48.858;9.206;2022-08-03T05:26:35;6.13;;;5.03;;
11313;SDS011;5712;48.858;9.206;2022-08-03T05:29:01;5.50;;;4.77;;
11313;SDS011;5712;48.858;9.206;2022-08-03T05:31:28;5.97;;;5.33;;
11313;SDS011;5712;48.858;9.206;2022-08-03T05:33:55;6.50;;;5.27;;
11313;SDS011;5712;48.858;9.206;2022-08-03T05:36:22;5.57;;;4.60;;
11313;SDS011;5712;48.858;9.206;2022-08-03T05:38:48;5.00;;;4.37;;
11313;SDS011;5712;48.858;9.206;2022-08-03T05:41:15;4.70;;;4.30;;
11313;SDS011;5712;48.858;9.206;2022-08-03T05:43:43;6.60;;;4.50;;
11313;SDS011;5712;48.858;9.206;2022-08-03T05:46:10;4.90;;;4.27;;
11313;SDS011;5712;48.858;9.206;2022-08-03T05:48:36;6.50;;;4.47;;
11313;SDS011;5712;48.858;9.206;2022-08-03T05:51:03;4.13;;;3.73;;
11313;SDS011;5712;48.858;9.206;2022-08-03T05:53:31;3.90;;;3.60;;
11313;SDS011;5712;48.858;9.206;2022-08-03T05:55:58;4.37;;;3.70;;
11313;SDS011;5712;48.858;9.206;2022-08-03T05:58:25;5.63;;;4.60;;
11313;SDS011;5712;48.858;9.206;2022-08-03T06:00:52;4.73;;;3.83;;
11313;SDS011;5712;48.858;9.206;2022-08-03T06:03:19;4.60;;;3.70;;
11313;SDS011;5712;48.858;9.206;2022-08-03T06:05:46;4.30;;;3.73;;
11313;SDS011;5712;48.858;9.206;2022-08-03T06:08:12;4.10;;;3.80;;
11313;SDS011;5712;48.858;9.206;2022-08-03T06:10:39;3.90;;;3.50;;
11313;SDS011;5712;48.858;9.206;2022-08-03T06:13:05;4.43;;;4.00;;
11313;SDS011;5712;48.858;9.206;2022-08-03T06:15:32;4.07;;;3.67;;
11313;SDS011;5712;48.858;9.206;2022-08-03T06:18:00;6.00;;;3.67;;
11313;SDS011;5712;48.858;9.206;2022-08-03T06:20:27;4.45;;;3.60;;
11313;SDS011;5712;48.858;9.206;2022-08-03T06:22:54;5.30;;;3.90;;
11313;SDS011;5712;48.858;9.206;2022-08-03T06:25:21;4.88;;;3.78;;
11313;SDS011;5712;48.858;9.206;2022-08-03T06:27:47;3.55;;;3.25;;
11313;SDS011;5712;48.858;9.206;2022-08-03T06:30:14;3.63;;;3.33;;
11313;SDS011;5712;48.858;9.206;2022-08-03T06:32:41;3.70;;;3.20;;
11313;SDS011;5712;48.858;9.206;2022-08-03T06:35:09;4.45;;;3.40;;
11313;SDS011;5712;48.858;9.206;2022-08-03T06:37:42;3.10;;;2.90;;
11313;SDS011;5712;48.858;9.206;2022-08-03T06:40:10;3.78;;;3.38;;
11313;SDS011;5712;48.858;9.206;2022-08-03T06:42:37;4.22;;;3.22;;
11313;SDS011;5712;48.858;9.206;2022-08-03T06:45:04;3.10;;;2.90;;
11313;SDS011;5712;48.858;9.206;2022-08-03T06:47:33;4.07;;;3.20;;
11313;SDS011;5712;48.858;9.206;2022-08-03T06:49:59;3.78;;;3.47;;
11313;SDS011;5712;48.858;9.206;2022-08-03T06:52:27;3.50;;;3.20;;
11313;SDS011;5712;48.858;9.206;2022-08-03T06:54:54;4.28;;;3.17;;
11313;SDS011;5712;48.858;9.206;2022-08-03T06:57:20;3.15;;;2.90;;
11313;SDS011;5712;48.858;9.206;2022-08-03T06:59:47;3.58;;;3.28;;
11313;SDS011;5712;48.858;9.206;2022-08-03T07:02:13;4.78;;;3.10;;
11313;SDS011;5712;48.858;9.206;2022-08-03T07:04:40;4.20;;;3.60;;
11313;SDS011;5712;48.858;9.206;2022-08-03T07:07:06;4.03;;;3.03;;
11313;SDS011;5712;48.858;9.206;2022-08-03T07:09:34;3.10;;;2.83;;
11313;SDS011;5712;48.858;9.206;2022-08-03T07:12:01;3.07;;;2.87;;
11313;SDS011;5712;48.858;9.206;2022-08-03T07:14:30;3.73;;;2.97;;
11313;SDS011;5712;48.858;9.206;2022-08-03T07:16:57;3.40;;;3.10;;
11313;SDS011;5712;48.858;9.206;2022-08-03T07:19:23;3.03;;;2.80;;
11313;SDS011;5712;48.858;9.206;2022-08-03T07:21:50;3.67;;;3.30;;
11313;SDS011;5712;48.858;9.206;2022-08-03T07:24:16;3.20;;;2.90;;
11313;SDS011;5712;48.858;9.206;2022-08-03T07:26:44;2.93;;;2.63;;
11313;SDS011;5712;48.858;9.206;2022-08-03T07:29:10;2.90;;;2.70;;
11313;SDS011;5712;48.858;9.206;2022-08-03T07:31:37;3.07;;;2.70;;
11313;SDS011;5712;48.858;9.206;2022-08-03T07:34:04;3.27;;;2.97;;
11313;SDS011;5712;48.858;9.206;2022-08-03T07:36:30;3.70;;;2.70;;
11313;SDS011;5712;48.858;9.206;2022-08-03T07:38:57;2.65;;;2.45;;
11313;SDS011;5712;48.858;9.206;2022-08-03T07:41:23;2.70;;;2.50;;
11313;SDS011;5712;48.858;9.206;2022-08-03T07:43:51;2.03;;;1.90;;
11313;SDS011;5712;48.858;9.206;2022-08-03T07:46:18;2.13;;;1.93;;
11313;SDS011;5712;48.858;9.206;2022-08-03T07:48:44;2.73;;;2.30;;
11313;SDS011;5712;48.858;9.206;2022-08-03T07:51:11;2.33;;;2.10;;
11313;SDS011;5712;48.858;9.206;2022-08-03T07:53:37;2.40;;;2.20;;
11313;SDS011;5712;48.858;9.206;2022-08-03T07:56:04;2.40;;;2.20;;
11313;SDS011;5712;48.858;9.206;2022-08-03T07:58:30;2.20;;;2.00;;
11313;SDS011;5712;48.858;9.206;2022-08-03T08:00:58;1.85;;;1.75;;
11313;SDS011;5712;48.858;9.206;2022-08-03T08:03:25;2.00;;;1.80;;
11313;SDS011;5712;48.858;9.206;2022-08-03T08:05:51;2.00;;;1.80;;
11313;SDS011;5712;48.858;9.206;2022-08-03T08:08:18;2.28;;;2.08;;
11313;SDS011;5712;48.858;9.206;2022-08-03T08:10:45;2.25;;;2.05;;
11313;SDS011;5712;48.858;9.206;2022-08-03T08:13:12;2.17;;;1.60;;
11313;SDS011;5712;48.858;9.206;2022-08-03T08:15:38;2.15;;;1.95;;
11313;SDS011;5712;48.858;9.206;2022-08-03T08:18:07;2.23;;;1.80;;
11313;SDS011;5712;48.858;9.206;2022-08-03T08:20:34;1.90;;;1.80;;
11313;SDS011;5712;48.858;9.206;2022-08-03T08:23:03;1.98;;;1.77;;
11313;SDS011;5712;48.858;9.206;2022-08-03T08:25:31;2.47;;;1.70;;
11313;SDS011;5712;48.858;9.206;2022-08-03T08:27:59;1.88;;;1.75;;
11313;SDS011;5712;48.858;9.206;2022-08-03T08:30:27;1.70;;;1.60;;
11313;SDS011;5712;48.858;9.206;2022-08-03T08:32:54;1.63;;;1.50;;
11313;SDS011;5712;48.858;9.206;2022-08-03T08:35:23;2.22;;;1.70;;
11313;SDS011;5712;48.858;9.206;2022-08-03T08:37:49;1.60;;;1.50;;
11313;SDS011;5712;48.858;9.206;2022-08-03T08:40:16;1.70;;;1.50;;
11313;SDS011;5712;48.858;9.206;2022-08-03T08:42:46;1.50;;;1.40;;
11313;SDS011;5712;48.858;9.206;2022-08-03T08:45:12;1.60;;;1.30;;
11313;SDS011;5712;48.858;9.206;2022-08-03T08:47:39;1.48;;;1.30;;
11313;SDS011;5712;48.858;9.206;2022-08-03T08:50:09;1.50;;;1.40;;
11313;SDS011;5712;48.858;9.206;2022-08-03T08:52:39;1.77;;;1.67;;
11313;SDS011;5712;48.858;9.206;2022-08-03T08:55:08;1.55;;;1.45;;
11313;SDS011;5712;48.858;9.206;2022-08-03T08:57:36;1.98;;;1.52;;
11313;SDS011;5712;48.858;9.206;2022-08-03T09:00:04;1.30;;;1.20;;
11313;SDS011;5712;48.858;9.206;2022-08-03T09:02:33;1.58;;;1.48;;
11313;SDS011;5712;48.858;9.206;2022-08-03T09:05:00;1.25;;;1.15;;
11313;SDS011;5712;48.858;9.206;2022-08-03T09:07:27;1.80;;;1.30;;
11313;SDS011;5712;48.858;9.206;2022-08-03T09:09:55;1.67;;;1.55;;
11313;SDS011;5712;48.858;9.206;2022-08-03T09:12:22;1.40;;;1.30;;
11313;SDS011;5712;48.858;9.206;2022-08-03T09:14:48;1.58;;;1.48;;
11313;SDS011;5712;48.858;9.206;2022-08-03T09:17:15;1.50;;;1.40;;
11313;SDS011;5712;48.858;9.206;2022-08-03T09:19:42;1.75;;;1.30;;
11313;SDS011;5712;48.858;9.206;2022-08-03T09:22:09;1.15;;;1.10;;
11313;SDS011;5712;48.858;9.206;2022-08-03T09:24:38;2.03;;;1.20;;
11313;SDS011;5712;48.858;9.206;2022-08-03T09:27:20;1.50;;;1.40;;
11313;SDS011;5712;48.858;9.206;2022-08-03T09:29:47;1.70;;;1.60;;
11313;SDS011;5712;48.858;9.206;2022-08-03T09:32:14;1.73;;;1.40;;
11313;SDS011;5712;48.858;9.206;2022-08-03T09:34:41;1.20;;;1.10;;
11313;SDS011;5712;48.858;9.206;2022-08-03T09:37:11;1.42;;;1.33;;
11313;SDS011;5712;48.858;9.206;2022-08-03T09:39:38;1.55;;;1.45;;
11313;SDS011;5712;48.858;9.206;2022-08-03T09:42:06;1.52;;;1.42;;
11313;SDS011;5712;48.858;9.206;2022-08-03T09:44:36;1.65;;;1.55;;
11313;SDS011;5712;48.858;9.206;2022-08-03T09:47:06;1.88;;;1.77;;
11313;SDS011;5712;48.858;9.206;2022-08-03T09:49:34;1.70;;;1.40;;
11313;SDS011;5712;48.858;9.206;2022-08-03T09:52:10;1.80;;;1.63;;
11313;SDS011;5712;48.858;9.206;2022-08-03T09:54:38;2.33;;;1.73;;
11313;SDS011;5712;48.858;9.206;2022-08-03T09:57:06;1.85;;;1.20;;
11313;SDS011;5712;48.858;9.206;2022-08-03T09:59:33;1.77;;;1.67;;
11313;SDS011;5712;48.858;9.206;2022-08-03T10:02:01;2.95;;;1.90;;
11313;SDS011;5712;48.858;9.206;2022-08-03T10:04:27;1.70;;;1.60;;
11313;SDS011;5712;48.858;9.206;2022-08-03T10:07:01;2.85;;;1.52;;
11313;SDS011;5712;48.858;9.206;2022-08-03T10:09:29;1.65;;;1.55;;
11313;SDS011;5712;48.858;9.206;2022-08-03T10:11:55;2.60;;;1.40;;
11313;SDS011;5712;48.858;9.206;2022-08-03T10:14:23;1.70;;;1.60;;
11313;SDS011;5712;48.858;9.206;2022-08-03T10:16:54;2.35;;;1.40;;
11313;SDS011;5712;48.858;9.206;2022-08-03T10:19:22;3.05;;;1.40;;
11313;SDS011;5712;48.858;9.206;2022-08-03T10:21:52;1.55;;;1.45;;
11313;SDS011;5712;48.858;9.206;2022-08-03T10:24:23;1.92;;;1.55;;
11313;SDS011;5712;48.858;9.206;2022-08-03T10:26:52;1.30;;;1.10;;
11313;SDS011;5712;48.858;9.206;2022-08-03T10:29:25;2.42;;;1.42;;
11313;SDS011;5712;48.858;9.206;2022-08-03T10:31:55;1.63;;;1.30;;
11313;SDS011;5712;48.858;9.206;2022-08-03T10:34:26;1.60;;;1.50;;
11313;SDS011;5712;48.858;9.206;2022-08-03T10:36:58;2.20;;;1.50;;
11313;SDS011;5712;48.858;9.206;2022-08-03T10:39:26;2.55;;;1.40;;
11313;SDS011;5712;48.858;9.206;2022-08-03T10:41:54;1.60;;;1.50;;
11313;SDS011;5712;48.858;9.206;2022-08-03T10:44:23;1.60;;;1.50;;
11313;SDS011;5712;48.858;9.206;2022-08-03T10:46:51;1.90;;;1.40;;
11313;SDS011;5712;48.858;9.206;2022-08-03T10:49:18;1.50;;;1.40;;
11313;SDS011;5712;48.858;9.206;2022-08-03T10:51:47;1.95;;;1.48;;
11313;SDS011;5712;48.858;9.206;2022-08-03T10:57:41;1.67;;;1.50;;
11313;SDS011;5712;48.858;9.206;2022-08-03T11:00:11;1.52;;;1.30;;
11313;SDS011;5712;48.858;9.206;2022-08-03T11:05:27;2.78;;;1.60;;
11313;SDS011;5712;48.858;9.206;2022-08-03T11:10:49;1.80;;;1.70;;
11313;SDS011;5712;48.858;9.206;2022-08-03T11:13:17;2.08;;;1.63;;
11313;SDS011;5712;48.858;9.206;2022-08-03T11:15:46;1.75;;;1.60;;
11313;SDS011;5712;48.858;9.206;2022-08-03T11:18:15;1.80;;;1.70;;
11313;SDS011;5712;48.858;9.206;2022-08-03T11:20:43;4.72;;;1.83;;
11313;SDS011;5712;48.858;9.206;2022-08-03T11:23:11;1.70;;;1.60;;
11313;SDS011;5712;48.858;9.206;2022-08-03T11:28:38;2.45;;;1.60;;
11313;SDS011;5712;48.858;9.206;2022-08-03T11:34:11;1.83;;;1.63;;
11313;SDS011;5712;48.858;9.206;2022-08-03T11:39:43;2.10;;;1.90;;
11313;SDS011;5712;48.858;9.206;2022-08-03T11:45:12;1.88;;;1.70;;
11313;SDS011;5712;48.858;9.206;2022-08-03T11:47:40;1.60;;;1.50;;
11313;SDS011;5712;48.858;9.206;2022-08-03T11:50:08;1.90;;;1.67;;
11313;SDS011;5712;48.858;9.206;2022-08-03T11:52:36;1.60;;;1.50;;
11313;SDS011;5712;48.858;9.206;2022-08-03T11:55:13;1.73;;;1.63;;
11313;SDS011;5712;48.858;9.206;2022-08-03T11:57:44;1.80;;;1.70;;
11313;SDS011;5712;48.858;9.206;2022-08-03T12:00:27;1.80;;;1.70;;
11313;SDS011;5712;48.858;9.206;2022-08-03T12:02:59;1.73;;;1.63;;
11313;SDS011;5712;48.858;9.206;2022-08-03T12:05:44;1.83;;;1.73;;
11313;SDS011;5712;48.858;9.206;2022-08-03T12:08:13;1.83;;;1.58;;
11313;SDS011;5712;48.858;9.206;2022-08-03T12:10:45;2.45;;;1.67;;
11313;SDS011;5712;48.858;9.206;2022-08-03T12:13:16;2.00;;;1.80;;
11313;SDS011;5712;48.858;9.206;2022-08-03T12:15:43;1.65;;;1.50;;
11313;SDS011;5712;48.858;9.206;2022-08-03T12:18:16;1.60;;;1.50;;
11313;SDS011;5712;48.858;9.206;2022-08-03T12:20:44;2.10;;;1.40;;
11313;SDS011;5712;48.858;9.206;2022-08-03T12:23:11;1.73;;;1.63;;
11313;SDS011;5712;48.858;9.206;2022-08-03T12:25:39;2.58;;;1.80;;
11313;SDS011;5712;48.858;9.206;2022-08-03T12:28:08;1.52;;;1.42;;
11313;SDS011;5712;48.858;9.206;2022-08-03T12:30:38;1.65;;;1.55;;
11313;SDS011;5712;48.858;9.206;2022-08-03T12:33:12;1.60;;;1.50;;
11313;SDS011;5712;48.858;9.206;2022-08-03T12:35:39;1.85;;;1.63;;
11313;SDS011;5712;48.858;9.206;2022-08-03T12:38:06;2.00;;;1.80;;
11313;SDS011;5712;48.858;9.206;2022-08-03T12:40:32;2.10;;;1.73;;
11313;SDS011;5712;48.858;9.206;2022-08-03T12:42:59;1.77;;;1.67;;
11313;SDS011;5712;48.858;9.206;2022-08-03T12:45:27;2.30;;;1.90;;
11313;SDS011;5712;48.858;9.206;2022-08-03T12:47:58;1.40;;;1.30;;
11313;SDS011;5712;48.858;9.206;2022-08-03T12:50:26;2.05;;;1.60;;
11313;SDS011;5712;48.858;9.206;2022-08-03T12:52:54;1.80;;;1.70;;
11313;SDS011;5712;48.858;9.206;2022-08-03T12:55:22;1.60;;;1.50;;
11313;SDS011;5712;48.858;9.206;2022-08-03T12:57:49;1.70;;;1.60;;
11313;SDS011;5712;48.858;9.206;2022-08-03T13:00:16;3.40;;;1.90;;
11313;SDS011;5712;48.858;9.206;2022-08-03T13:02:43;1.65;;;1.55;;
11313;SDS011;5712;48.858;9.206;2022-08-03T13:05:12;1.55;;;1.45;;
11313;SDS011;5712;48.858;9.206;2022-08-03T13:07:40;2.20;;;1.60;;
11313;SDS011;5712;48.858;9.206;2022-08-03T13:10:08;1.98;;;1.80;;
11313;SDS011;5712;48.858;9.206;2022-08-03T13:12:44;1.98;;;1.70;;
11313;SDS011;5712;48.858;9.206;2022-08-03T13:15:12;1.58;;;1.48;;
11313;SDS011;5712;48.858;9.206;2022-08-03T13:17:39;1.92;;;1.70;;
11313;SDS011;5712;48.858;9.206;2022-08-03T13:20:06;1.73;;;1.63;;
11313;SDS011;5712;48.858;9.206;2022-08-03T13:22:34;1.63;;;1.52;;
11313;SDS011;5712;48.858;9.206;2022-08-03T13:25:01;1.88;;;1.52;;
11313;SDS011;5712;48.858;9.206;2022-08-03T13:27:28;1.60;;;1.50;;
11313;SDS011;5712;48.858;9.206;2022-08-03T13:29:55;1.63;;;1.52;;
11313;SDS011;5712;48.858;9.206;2022-08-03T13:32:22;2.15;;;1.65;;
11313;SDS011;5712;48.858;9.206;2022-08-03T13:34:49;2.28;;;1.60;;
11313;SDS011;5712;48.858;9.206;2022-08-03T13:37:15;3.05;;;1.80;;
11313;SDS011;5712;48.858;9.206;2022-08-03T13:39:43;1.95;;;1.77;;
11313;SDS011;5712;48.858;9.206;2022-08-03T13:42:10;1.80;;;1.70;;
11313;SDS011;5712;48.858;9.206;2022-08-03T13:44:36;1.90;;;1.80;;
11313;SDS011;5712;48.858;9.206;2022-08-03T13:47:03;1.85;;;1.70;;
11313;SDS011;5712;48.858;9.206;2022-08-03T13:49:30;1.75;;;1.65;;
11313;SDS011;5712;48.858;9.206;2022-08-03T13:51:57;1.63;;;1.52;;
11313;SDS011;5712;48.858;9.206;2022-08-03T13:54:24;1.73;;;1.60;;
11313;SDS011;5712;48.858;9.206;2022-08-03T13:56:52;2.22;;;1.52;;
11313;SDS011;5712;48.858;9.206;2022-08-03T13:59:19;1.90;;;1.42;;
11313;SDS011;5712;48.858;9.206;2022-08-03T14:01:46;1.58;;;1.48;;
11313;SDS011;5712;48.858;9.206;2022-08-03T14:04:13;1.70;;;1.50;;
11313;SDS011;5712;48.858;9.206;2022-08-03T14:06:39;1.50;;;1.40;;
11313;SDS011;5712;48.858;9.206;2022-08-03T14:09:08;1.95;;;1.85;;
11313;SDS011;5712;48.858;9.206;2022-08-03T14:11:34;2.53;;;1.50;;
11313;SDS011;5712;48.858;9.206;2022-08-03T14:14:02;2.38;;;1.63;;
11313;SDS011;5712;48.858;9.206;2022-08-03T14:16:29;1.60;;;1.50;;
11313;SDS011;5712;48.858;9.206;2022-08-03T14:18:55;1.70;;;1.60;;
11313;SDS011;5712;48.858;9.206;2022-08-03T14:21:22;2.17;;;1.67;;
11313;SDS011;5712;48.858;9.206;2022-08-03T14:23:48;2.33;;;1.63;;
11313;SDS011;5712;48.858;9.206;2022-08-03T14:26:15;1.35;;;1.25;;
11313;SDS011;5712;48.858;9.206;2022-08-03T14:28:42;1.65;;;1.52;;
11313;SDS011;5712;48.858;9.206;2022-08-03T14:31:10;1.20;;;1.15;;
11313;SDS011;5712;48.858;9.206;2022-08-03T14:33:37;2.25;;;1.60;;
11313;SDS011;5712;48.858;9.206;2022-08-03T14:36:04;2.45;;;1.48;;
11313;SDS011;5712;48.858;9.206;2022-08-03T14:38:30;2.30;;;1.60;;
11313;SDS011;5712;48.858;9.206;2022-08-03T14:40:57;2.00;;;1.55;;
11313;SDS011;5712;48.858;9.206;2022-08-03T14:43:24;1.65;;;1.40;;
11313;SDS011;5712;48.858;9.206;2022-08-03T14:45:51;1.65;;;1.55;;
11313;SDS011;5712;48.858;9.206;2022-08-03T14:48:20;1.40;;;1.30;;
11313;SDS011;5712;48.858;9.206;2022-08-03T14:50:48;1.50;;;1.40;;
11313;SDS011;5712;48.858;9.206;2022-08-03T14:53:14;1.58;;;1.48;;
11313;SDS011;5712;48.858;9.206;2022-08-03T14:55:41;1.50;;;1.40;;
11313;SDS011;5712;48.858;9.206;2022-08-03T14:58:08;1.88;;;1.30;;
11313;SDS011;5712;48.858;9.206;2022-08-03T15:00:34;1.50;;;1.40;;
11313;SDS011;5712;48.858;9.206;2022-08-03T15:03:01;1.98;;;1.67;;
11313;SDS011;5712;48.858;9.206;2022-08-03T15:05:30;1.55;;;1.45;;
11313;SDS011;5712;48.858;9.206;2022-08-03T15:07:56;1.50;;;1.40;;
11313;SDS011;5712;48.858;9.206;2022-08-03T15:10:23;1.75;;;1.40;;
11313;SDS011;5712;48.858;9.206;2022-08-03T15:12:49;2.20;;;1.60;;
11313;SDS011;5712;48.858;9.206;2022-08-03T15:15:18;1.70;;;1.60;;
11313;SDS011;5712;48.858;9.206;2022-08-03T15:17:45;2.25;;;1.33;;
11313;SDS011;5712;48.858;9.206;2022-08-03T15:20:11;1.40;;;1.30;;
11313;SDS011;5712;48.858;9.206;2022-08-03T15:22:39;2.65;;;1.67;;
11313;SDS011;5712;48.858;9.206;2022-08-03T15:25:06;1.92;;;1.60;;
11313;SDS011;5712;48.858;9.206;2022-08-03T15:27:33;1.77;;;1.67;;
11313;SDS011;5712;48.858;9.206;2022-08-03T15:30:00;1.63;;;1.23;;